Time;durP1;ratioP1;P1;durP2;ratioP2;P2;SDS_P1;SDS_P2;PMS_P1;PMS_P2;Temp;Humidity;BMP_temperature;BMP_pressure;BME280_temperature;BME280_humidity;BME280_pressure;Samples;Min_cycle;Max_cycle;Signal;HPM_P1;HPM_P2
2024/04/08 00:01:03;;;;;;;13.10;3.10;;;;;;;12.88;100.00;100941.50;5015496;28;20198;-76
2024/04/08 00:03:29;;;;;;;10.80;2.23;;;;;;;12.28;100.00;100830.50;5037461;28;20606;-76
2024/04/08 00:05:56;;;;;;;15.10;2.80;;;;;;;13.09;100.00;100991.56;5013462;28;20306;-76
2024/04/08 00:08:21;;;;;;;11.83;2.43;;;;;;;12.01;100.00;100794.78;5034062;28;20239;-76
2024/04/08 00:10:47;;;;;;;12.73;2.60;;;;;;;12.25;100.00;100855.13;5032274;28;20473;-76
2024/04/08 00:13:13;;;;;;;15.33;2.60;;;;;;;12.89;100.00;100948.53;5013392;28;20226;-76
2024/04/08 00:15:38;;;;;;;8.97;2.30;;;;;;;12.59;100.00;100886.31;5015288;28;20183;-76
2024/04/08 00:18:04;;;;;;;11.30;2.97;;;;;;;14.51;100.00;101183.03;5031421;28;20859;-76
2024/04/08 00:20:29;;;;;;;16.07;2.43;;;;;;;12.60;100.00;100901.41;5031994;28;20199;-76
2024/04/08 00:22:55;;;;;;;8.97;2.20;;;;;;;12.30;100.00;100870.66;5012968;28;20211;-75
2024/04/08 00:25:21;;;;;;;10.17;2.30;;;;;;;13.71;100.00;101067.47;5030221;28;20194;-76
2024/04/08 00:27:46;;;;;;;10.20;2.17;;;;;;;11.62;100.00;100728.44;5034135;28;20262;-75
2024/04/08 00:30:12;;;;;;;9.27;2.33;;;;;;;13.50;100.00;101086.59;5017815;28;20203;-75
2024/04/08 00:32:37;;;;;;;15.80;2.17;;;;;;;11.95;100.00;100842.16;5006281;28;20200;-75
2024/04/08 00:35:06;;;;;;;9.90;2.77;;;;;;;12.67;100.00;100925.63;5031451;28;20734;-75
2024/04/08 00:37:31;;;;;;;11.57;2.73;;;;;;;13.50;100.00;101092.00;5031034;28;20184;-75
2024/04/08 00:39:57;;;;;;;9.63;2.67;;;;;;;12.92;100.00;100989.56;5027968;28;20450;-75
2024/04/08 00:42:22;;;;;;;13.70;2.80;;;;;;;12.95;100.00;100952.25;5008574;28;20212;-75
2024/04/08 00:44:48;;;;;;;11.57;2.60;;;;;;;12.11;100.00;100854.31;5009824;28;20576;-75
2024/04/08 00:47:14;;;;;;;10.57;2.70;;;;;;;12.12;100.00;100892.78;5027258;28;20291;-75
2024/04/08 00:49:44;;;;;;;9.43;2.67;;;;;;;12.09;100.00;100894.06;5029987;28;20594;-75
2024/04/08 00:52:13;;;;;;;12.03;2.53;;;;;;;12.47;100.00;100981.31;5025591;28;20553;-75
2024/04/08 00:54:40;;;;;;;9.50;2.80;;;;;;;13.22;100.00;101113.78;5030551;28;20439;-75
2024/04/08 00:57:12;;;;;;;12.87;2.90;;;;;;;11.58;100.00;100840.03;5030346;28;20461;-75
2024/04/08 00:59:38;;;;;;;9.63;2.33;;;;;;;11.41;100.00;100786.72;5027535;28;20862;-75
2024/04/08 01:02:06;;;;;;;12.73;2.97;;;;;;;12.31;100.00;100936.84;5010203;28;20459;-75
2024/04/08 01:04:32;;;;;;;12.03;2.63;;;;;;;12.16;100.00;100963.94;5029032;28;20176;-75
2024/04/08 01:06:59;;;;;;;13.17;2.70;;;;;;;11.75;100.00;100908.47;5030088;28;22832;-75
2024/04/08 01:09:24;;;;;;;10.87;2.30;;;;;;;11.69;100.00;100933.47;5027499;28;20439;-75
2024/04/08 01:11:50;;;;;;;11.80;2.10;;;;;;;11.74;100.00;100947.09;5013537;28;20469;-75
2024/04/08 01:14:15;;;;;;;14.20;2.45;;;;;;;11.38;100.00;100878.44;5011540;28;20209;-75
2024/04/08 01:16:41;;;;;;;9.70;2.20;;;;;;;11.55;100.00;100900.38;5028276;28;20225;-75
2024/04/08 01:19:06;;;;;;;14.80;2.50;;;;;;;11.28;100.00;100797.41;5027067;28;20184;-75
2024/04/08 01:21:32;;;;;;;12.47;2.50;;;;;;;12.48;100.00;101059.13;5024430;28;20203;-75
2024/04/08 01:23:58;;;;;;;11.67;2.20;;;;;;;11.32;100.00;100903.41;5026991;28;20195;-75
2024/04/08 01:26:24;;;;;;;11.33;2.40;;;;;;;10.17;100.00;100768.94;5007063;28;20222;-75
2024/04/08 01:28:50;;;;;;;10.23;2.40;;;;;;;11.08;100.00;100868.03;5027106;28;20458;-76
2024/04/08 01:31:15;;;;;;;12.90;2.55;;;;;;;11.47;100.00;100944.34;5009208;28;20557;-75
2024/04/08 01:33:42;;;;;;;9.93;2.00;;;;;;;11.04;100.00;100865.94;5004789;28;20446;-75
2024/04/08 01:36:09;;;;;;;8.70;2.17;;;;;;;10.90;100.00;100853.50;5009038;28;20184;-77
2024/04/08 01:38:39;;;;;;;14.87;2.67;;;;;;;11.94;100.00;101043.94;5026911;28;20454;-75
2024/04/08 01:41:04;;;;;;;11.20;2.10;;;;;;;12.86;100.00;101180.47;5011684;28;20547;-75
2024/04/08 01:43:30;;;;;;;10.27;2.20;;;;;;;11.53;100.00;100969.59;5026362;28;20479;-75
2024/04/08 01:45:55;;;;;;;9.23;2.33;;;;;;;11.72;100.00;101016.38;5034016;28;20612;-75
2024/04/08 01:48:21;;;;;;;13.87;2.20;;;;;;;10.39;100.00;100787.66;5016213;28;20216;-75
2024/04/08 01:50:46;;;;;;;12.90;3.27;;;;;;;11.36;100.00;100995.97;5030551;28;20556;-75
2024/04/08 01:53:12;;;;;;;10.90;3.13;;;;;;;11.84;100.00;101076.56;5030106;28;20214;-75
2024/04/08 01:55:37;;;;;;;9.20;2.50;;;;;;;11.34;100.00;100997.19;5009197;28;20184;-75
2024/04/08 01:58:03;;;;;;;11.07;2.57;;;;;;;13.11;100.00;101285.75;5031169;28;20188;-75
2024/04/08 02:00:29;;;;;;;8.20;2.23;;;;;;;11.63;100.00;101023.78;5013002;28;20807;-75
2024/04/08 02:02:54;;;;;;;10.37;2.13;;;;;;;12.16;100.00;101133.34;5030882;28;20684;-75
2024/04/08 02:05:20;;;;;;;7.90;1.90;;;;;;;11.85;100.00;101094.34;5028134;28;20185;-75
2024/04/08 02:07:45;;;;;;;7.60;2.17;;;;;;;12.74;100.00;101209.03;5031129;28;20208;-76
2024/04/08 02:10:11;;;;;;;11.03;3.00;;;;;;;10.95;100.00;100936.91;5006558;28;20184;-75
2024/04/08 02:12:37;;;;;;;11.03;2.10;;;;;;;10.68;100.00;100907.28;5009477;28;20225;-75
2024/04/08 02:15:03;;;;;;;12.40;2.70;;;;;;;10.37;100.00;100905.81;5011220;28;20521;-76
2024/04/08 02:17:28;;;;;;;11.13;2.43;;;;;;;12.26;100.00;101167.94;5010816;28;20748;-76
2024/04/08 02:19:54;;;;;;;11.20;2.13;;;;;;;10.72;100.00;100934.53;5026966;28;20435;-75
2024/04/08 02:22:20;;;;;;;9.50;2.10;;;;;;;10.60;100.00;100868.00;5029427;28;20303;-76
2024/04/08 02:24:45;;;;;;;9.97;2.03;;;;;;;12.05;100.00;101080.16;5029501;28;20192;-76
2024/04/08 02:27:11;;;;;;;14.77;2.80;;;;;;;12.48;100.00;101208.97;5029226;28;20603;-75
2024/04/08 02:29:36;;;;;;;10.57;1.70;;;;;;;10.78;100.00;100909.56;5030593;28;20192;-75
2024/04/08 02:32:02;;;;;;;10.37;2.00;;;;;;;11.45;100.00;100978.63;5029896;28;20204;-76
2024/04/08 02:34:27;;;;;;;11.80;2.10;;;;;;;10.86;100.00;100930.88;5029578;28;20189;-75
2024/04/08 02:36:53;;;;;;;9.80;1.97;;;;;;;11.35;100.00;101013.13;5013382;28;20192;-75
2024/04/08 02:39:18;;;;;;;14.93;2.50;;;;;;;11.05;100.00;100962.38;5032390;28;20228;-75
2024/04/08 02:41:44;;;;;;;9.40;2.40;;;;;;;11.32;100.00;100965.19;5031414;28;20213;-75
2024/04/08 02:44:09;;;;;;;11.07;2.20;;;;;;;10.57;100.00;100856.84;5008985;28;20192;-75
2024/04/08 02:46:35;;;;;;;8.07;2.03;;;;;;;10.95;100.00;100902.84;5014863;28;20181;-75
2024/04/08 02:49:01;;;;;;;8.43;2.13;;;;;;;11.04;100.00;100912.38;5033706;28;20223;-75
2024/04/08 02:51:26;;;;;;;10.30;2.40;;;;;;;11.01;100.00;100928.88;5034260;28;20861;-75
2024/04/08 02:53:51;;;;;;;12.53;2.30;;;;;;;10.58;100.00;100816.41;5031634;28;20195;-75
2024/04/08 02:56:17;;;;;;;7.87;2.00;;;;;;;10.38;100.00;100767.22;5014465;28;20198;-75
2024/04/08 02:58:45;;;;;;;9.57;2.53;;;;;;;11.29;100.00;100910.00;5012063;28;20239;-75
2024/04/08 03:01:11;;;;;;;10.30;2.40;;;;;;;11.71;100.00;101017.38;5032721;28;20188;-75
2024/04/08 03:03:37;;;;;;;8.50;2.10;;;;;;;11.56;100.00;100968.34;5028558;28;20516;-76
2024/04/08 03:06:21;;;;;;;8.07;2.07;;;;;;;13.17;100.00;101248.25;5013845;28;20316;-75
2024/04/08 03:08:46;;;;;;;9.40;3.13;;;;;;;11.11;100.00;100914.25;5013640;28;20497;-75
2024/04/08 03:11:12;;;;;;;9.53;2.60;;;;;;;10.28;100.00;100798.94;5029856;28;20470;-76
2024/04/08 03:13:39;;;;;;;8.87;2.40;;;;;;;11.86;100.00;101031.53;5031219;28;20246;-75
2024/04/08 03:16:05;;;;;;;13.20;2.50;;;;;;;10.77;100.00;100868.50;5008634;28;20187;-75
2024/04/08 03:18:30;;;;;;;10.00;2.47;;;;;;;9.93;100.00;100766.75;5032841;28;20434;-75
2024/04/08 03:21:03;;;;;;;6.50;2.23;;;;;;;10.61;100.00;100797.22;5028528;28;20542;-75
2024/04/08 03:23:29;;;;;;;9.93;2.50;;;;;;;11.02;100.00;100921.66;5012008;28;20195;-75
2024/04/08 03:25:58;;;;;;;6.97;2.57;;;;;;;13.04;100.00;101241.81;5006498;28;20736;-75
2024/04/08 03:28:24;;;;;;;10.03;2.50;;;;;;;13.18;100.00;101234.56;5007561;28;20621;-75
2024/04/08 03:30:50;;;;;;;9.80;2.43;;;;;;;12.19;100.00;101095.31;5029778;28;20445;-75
2024/04/08 03:33:15;;;;;;;6.73;2.23;;;;;;;11.11;100.00;100963.44;5030656;28;20470;-75
2024/04/08 03:35:41;;;;;;;8.77;2.20;;;;;;;13.05;100.00;101274.97;5028629;28;20761;-75
2024/04/08 03:38:07;;;;;;;7.13;2.13;;;;;;;11.86;100.00;101084.44;5017213;28;20190;-75
2024/04/08 03:40:32;;;;;;;9.53;2.50;;;;;;;11.50;100.00;101024.53;5032894;28;20192;-76
2024/04/08 03:42:58;;;;;;;10.07;2.40;;;;;;;10.24;100.00;100816.41;5029137;28;20204;-76
2024/04/08 03:45:23;;;;;;;7.13;2.17;;;;;;;11.07;100.00;100921.91;5029733;28;20592;-76
2024/04/08 03:47:48;;;;;;;12.50;3.07;;;;;;;11.36;100.00;100947.63;5029589;28;20204;-75
2024/04/08 03:50:14;;;;;;;8.53;2.47;;;;;;;10.33;100.00;100813.41;5012701;28;20183;-75
2024/04/08 03:52:39;;;;;;;7.17;2.20;;;;;;;11.39;100.00;100959.81;5030191;28;20200;-75
2024/04/08 03:55:05;;;;;;;9.30;2.80;;;;;;;13.04;100.00;101227.50;5032992;28;20703;-75
2024/04/08 03:57:31;;;;;;;9.87;2.90;;;;;;;11.60;100.00;101020.63;5033018;28;20578;-75
2024/04/08 03:59:56;;;;;;;7.03;2.73;;;;;;;11.54;100.00;101009.69;5030827;28;21126;-76
2024/04/08 04:02:21;;;;;;;8.53;2.40;;;;;;;10.90;100.00;100904.47;5012210;28;20273;-77
2024/04/08 04:04:47;;;;;;;8.17;2.20;;;;;;;12.99;100.00;101243.44;5033785;28;20199;-77
2024/04/08 04:07:12;;;;;;;11.10;3.03;;;;;;;11.80;100.00;101102.16;5029382;28;20184;-75
2024/04/08 04:09:38;;;;;;;11.23;2.80;;;;;;;10.26;100.00;100876.00;5034033;28;20191;-76
2024/04/08 04:12:04;;;;;;;7.83;2.13;;;;;;;10.95;100.00;100956.53;5014380;28;20226;-75
2024/04/08 04:14:29;;;;;;;10.67;2.13;;;;;;;10.72;100.00;100938.03;5035910;28;20183;-75
2024/04/08 04:16:55;;;;;;;9.63;2.53;;;;;;;10.94;100.00;100986.25;5035401;28;20188;-75
2024/04/08 04:19:20;;;;;;;9.63;2.63;;;;;;;11.04;100.00;101013.56;5032298;28;20198;-75
2024/04/08 04:21:46;;;;;;;9.80;2.73;;;;;;;10.19;100.00;100825.06;5036005;28;20204;-75
2024/04/08 04:24:11;;;;;;;8.73;2.50;;;;;;;10.61;100.00;100912.56;5033855;28;20195;-76
2024/04/08 04:26:36;;;;;;;11.53;2.90;;;;;;;11.30;100.00;101021.75;5029707;28;20631;-75
2024/04/08 04:29:02;;;;;;;8.47;2.47;;;;;;;12.12;100.00;101175.09;5035158;28;20247;-75
2024/04/08 04:31:41;;;;;;;8.60;2.50;;;;;;;10.46;100.00;100903.81;5030677;28;20200;-75
2024/04/08 04:34:07;;;;;;;9.73;2.60;;;;;;;10.84;100.00;100965.97;5027283;28;20266;-75
2024/04/08 04:36:32;;;;;;;6.40;2.33;;;;;;;11.03;100.00;101007.38;5029699;28;20588;-75
2024/04/08 04:38:57;;;;;;;7.60;2.80;;;;;;;11.79;100.00;101095.13;5031168;28;20278;-75
2024/04/08 04:41:23;;;;;;;9.27;2.40;;;;;;;10.16;100.00;100839.66;5035728;28;20215;-75
2024/04/08 04:43:48;;;;;;;8.50;2.90;;;;;;;9.86;100.00;100827.47;5017109;28;20184;-75
2024/04/08 04:46:14;;;;;;;9.27;2.67;;;;;;;10.49;100.00;100900.75;5027864;28;20195;-76
2024/04/08 04:48:40;;;;;;;11.53;2.77;;;;;;;10.99;100.00;101022.22;5030290;28;20208;-75
2024/04/08 04:51:05;;;;;;;7.77;2.53;;;;;;;10.80;100.00;101012.19;5010952;28;20674;-75
2024/04/08 04:53:31;;;;;;;9.50;2.80;;;;;;;10.43;100.00;100920.31;5029409;28;20530;-76
2024/04/08 04:55:56;;;;;;;8.33;3.03;;;;;;;11.70;100.00;101160.84;5027593;28;20196;-75
2024/04/08 04:58:22;;;;;;;9.30;2.90;;;;;;;11.11;100.00;101027.00;5026223;28;20188;-75
2024/04/08 05:00:51;;;;;;;9.83;2.87;;;;;;;11.08;100.00;101030.94;5029044;28;20237;-75
2024/04/08 05:03:17;;;;;;;7.70;2.93;;;;;;;12.93;100.00;101314.28;5027092;28;20211;-75
2024/04/08 05:05:42;;;;;;;9.90;3.20;;;;;;;10.51;100.00;100905.94;5012431;28;20512;-75
2024/04/08 05:08:08;;;;;;;8.43;3.10;;;;;;;10.53;100.00;100885.06;5028363;28;20468;-75
2024/04/08 05:10:34;;;;;;;8.10;3.13;;;;;;;10.64;100.00;100884.53;5013924;28;20209;-75
2024/04/08 05:12:59;;;;;;;9.00;3.20;;;;;;;10.59;100.00;100879.78;5035181;28;20733;-76
2024/04/08 05:15:26;;;;;;;12.10;3.03;;;;;;;11.40;100.00;100991.00;5035134;28;20227;-75
2024/04/08 05:17:51;;;;;;;9.00;3.03;;;;;;;13.02;100.00;101249.28;5016957;28;20241;-75
2024/04/08 05:20:22;;;;;;;9.47;3.27;;;;;;;11.65;100.00;101023.56;5014490;28;20451;-75
2024/04/08 05:22:47;;;;;;;9.93;3.87;;;;;;;11.26;100.00;100960.59;5009735;28;20212;-75
2024/04/08 05:25:13;;;;;;;7.17;3.20;;;;;;;11.60;100.00;101018.81;5008400;28;20447;-76
2024/04/08 05:27:39;;;;;;;6.57;2.60;;;;;;;10.57;100.00;100848.81;5028561;28;20204;-75
2024/04/08 05:30:06;;;;;;;7.80;2.60;;;;;;;10.65;100.00;100880.84;5020618;28;20189;-75
2024/04/08 05:32:32;;;;;;;12.87;3.90;;;;;;;11.65;100.00;101071.91;5004421;28;20212;-76
2024/04/08 05:34:57;;;;;;;9.00;3.13;;;;;;;13.05;100.00;101312.69;5008000;28;20440;-75
2024/04/08 05:37:23;;;;;;;12.57;3.40;;;;;;;11.72;100.00;101102.34;5025977;28;20187;-75
2024/04/08 05:39:48;;;;;;;11.10;3.00;;;;;;;10.39;100.00;100857.38;5030159;28;20208;-75
2024/04/08 05:42:14;;;;;;;9.83;3.60;;;;;;;11.50;100.00;101029.91;5014497;28;20207;-76
2024/04/08 05:44:39;;;;;;;8.70;2.67;;;;;;;11.06;100.00;100965.88;5029733;28;20202;-75
2024/04/08 05:47:04;;;;;;;10.70;3.50;;;;;;;11.89;100.00;101055.31;5008578;28;20192;-75
2024/04/08 05:49:30;;;;;;;8.13;3.13;;;;;;;11.32;100.00;100946.38;5032121;28;20795;-75
2024/04/08 05:51:55;;;;;;;10.23;3.07;;;;;;;11.44;100.00;100947.44;5032310;28;20216;-76
2024/04/08 05:54:21;;;;;;;7.63;2.93;;;;;;;11.79;100.00;100993.00;5032950;28;20211;-75
2024/04/08 05:56:46;;;;;;;7.33;3.10;;;;;;;11.45;100.00;100949.09;5030687;28;20211;-75
2024/04/08 05:59:12;;;;;;;10.13;3.03;;;;;;;11.17;100.00;100873.22;5029801;28;20183;-76
2024/04/08 06:01:37;;;;;;;6.90;2.70;;;;;;;12.09;100.00;101016.88;5014101;28;20207;-76
2024/04/08 06:04:03;;;;;;;7.97;2.87;;;;;;;11.65;100.00;100887.34;5010574;28;20188;-76
2024/04/08 06:06:29;;;;;;;9.73;3.50;;;;;;;11.30;100.00;100908.16;5013000;28;20223;-75
2024/04/08 06:09:08;;;;;;;9.43;3.50;;;;;;;11.22;100.00;100916.38;5027297;28;20238;-76
2024/04/08 06:11:34;;;;;;;9.20;3.10;;;;;;;10.81;100.00;100824.16;5016763;28;20204;-75
2024/04/08 06:13:59;;;;;;;9.63;2.83;;;;;;;12.20;100.00;101009.03;5032761;28;21000;-75
2024/04/08 06:16:25;;;;;;;9.80;3.30;;;;;;;12.25;100.00;101019.19;5012754;28;20443;-75
2024/04/08 06:18:50;;;;;;;10.40;3.23;;;;;;;11.38;100.00;100891.84;5030337;28;20192;-76
2024/04/08 06:21:16;;;;;;;7.77;2.60;;;;;;;11.49;100.00;100910.06;5034911;28;20726;-76
2024/04/08 06:23:41;;;;;;;9.47;3.53;;;;;;;11.86;100.00;100941.97;5035491;28;20200;-76
2024/04/08 06:26:07;;;;;;;8.83;2.53;;;;;;;12.28;100.00;101018.78;5016269;28;20195;-76
2024/04/08 06:28:32;;;;;;;8.53;2.87;;;;;;;11.40;100.00;100878.22;5021930;28;20298;-75
2024/04/08 06:30:58;;;;;;;9.07;2.30;;;;;;;11.87;100.00;100968.66;5036268;28;20206;-75
2024/04/08 06:33:23;;;;;;;8.37;2.67;;;;;;;12.12;100.00;101024.53;5013792;28;20208;-76
2024/04/08 06:35:49;;;;;;;7.50;2.50;;;;;;;11.14;100.00;100868.22;5009996;28;20189;-75
2024/04/08 06:38:15;;;;;;;8.43;3.07;;;;;;;12.94;100.00;101184.03;5017684;28;20188;-76
2024/04/08 06:40:42;;;;;;;9.50;3.10;;;;;;;11.60;100.00;100954.31;5032545;28;20505;-75
2024/04/08 06:43:07;;;;;;;9.20;3.53;;;;;;;11.98;100.00;100989.56;5031850;28;21099;-75
2024/04/08 06:45:33;;;;;;;8.80;3.07;;;;;;;10.72;100.00;100811.13;5034437;28;20477;-75
2024/04/08 06:47:58;;;;;;;9.20;3.53;;;;;;;11.43;100.00;100916.25;5032360;28;20287;-75
2024/04/08 06:50:24;;;;;;;7.50;2.87;;;;;;;12.47;100.00;101091.63;5030363;28;20190;-76
2024/04/08 06:52:49;;;;;;;11.30;3.80;;;;;;;12.18;100.00;101031.81;5030305;28;20223;-75
2024/04/08 06:55:18;;;;;;;8.60;2.80;;;;;;;12.67;100.00;101143.63;5032989;28;20189;-76
2024/04/08 06:57:43;;;;;;;9.33;2.77;;;;;;;11.39;100.00;100984.81;5014439;28;20180;-76
2024/04/08 07:00:10;;;;;;;9.20;3.33;;;;;;;10.85;100.00;100881.75;5032136;28;21458;-75
2024/04/08 07:02:36;;;;;;;6.50;2.90;;;;;;;11.72;100.00;101011.00;5029584;28;20212;-76
2024/04/08 07:05:02;;;;;;;12.17;3.57;;;;;;;12.04;100.00;101057.00;5025529;28;20931;-76
2024/04/08 07:07:27;;;;;;;8.07;3.13;;;;;;;12.91;100.00;101197.91;5014101;28;20435;-76
2024/04/08 07:09:53;;;;;;;15.77;4.17;;;;;;;12.24;100.00;101108.13;5028682;28;20441;-76
2024/04/08 07:12:18;;;;;;;9.00;2.93;;;;;;;11.70;100.00;100980.81;5032117;28;20260;-76
2024/04/08 07:14:44;;;;;;;12.07;3.53;;;;;;;12.79;100.00;101139.28;5028388;28;20188;-76
2024/04/08 07:17:09;;;;;;;16.33;3.70;;;;;;;12.56;100.00;101128.09;5014819;28;20238;-75
2024/04/08 07:19:35;;;;;;;9.37;3.23;;;;;;;13.62;100.00;101287.03;5028883;28;20195;-76
2024/04/08 07:22:01;;;;;;;8.90;3.57;;;;;;;10.90;100.00;100861.53;5028401;28;20306;-75
2024/04/08 07:24:26;;;;;;;9.60;3.40;;;;;;;11.88;100.00;101034.81;5008271;28;20447;-75
2024/04/08 07:26:52;;;;;;;9.93;3.57;;;;;;;10.98;100.00;100864.06;5025924;28;20227;-76
2024/04/08 07:29:17;;;;;;;10.50;3.97;;;;;;;11.55;100.00;100975.59;5028882;28;20211;-76
2024/04/08 07:31:43;;;;;;;8.50;3.20;;;;;;;12.23;100.00;101098.41;5030506;28;20212;-76
2024/04/08 07:34:08;;;;;;;11.10;3.30;;;;;;;12.29;100.00;101097.59;5027101;28;20195;-75
2024/04/08 07:36:33;;;;;;;10.67;3.47;;;;;;;10.62;100.00;100827.59;5028238;28;20183;-78
2024/04/08 07:38:59;;;;;;;9.50;3.20;;;;;;;12.14;100.00;101073.56;5009483;28;20271;-76
2024/04/08 07:41:24;;;;;;;12.53;3.03;;;;;;;11.65;100.00;101012.81;5027822;28;20265;-76
2024/04/08 07:43:50;;;;;;;7.40;3.57;;;;;;;11.32;100.00;100983.97;5028836;28;20197;-76
2024/04/08 07:46:15;;;;;;;9.53;3.63;;;;;;;12.06;100.00;101065.69;5032636;28;20245;-78
2024/04/08 07:48:41;;;;;;;14.03;3.60;;;;;;;12.02;100.00;101097.53;5030109;28;20208;-77
2024/04/08 07:51:06;;;;;;;7.67;2.80;;;;;;;13.52;100.00;101327.91;5027768;28;20188;-77
2024/04/08 07:53:32;;;;;;;7.80;3.23;;;;;;;11.07;100.00;100954.94;5029052;28;20218;-76
2024/04/08 07:55:59;;;;;;;10.87;3.70;;;;;;;11.60;100.00;101047.50;5014179;28;20206;-76
2024/04/08 07:58:26;;;;;;;13.53;4.63;;;;;;;11.53;100.00;101052.84;5033719;28;20988;-76
2024/04/08 08:00:58;;;;;;;11.03;3.70;;;;;;;11.03;100.00;100942.94;5016184;28;20439;-76
2024/04/08 08:03:26;;;;;;;10.03;4.03;;;;;;;10.82;100.00;100875.97;5030797;28;20875;-76
2024/04/08 08:05:52;;;;;;;9.30;3.97;;;;;;;11.28;100.00;100954.00;5012092;28;20794;-76
2024/04/08 08:08:17;;;;;;;10.87;4.40;;;;;;;11.24;100.00;100944.69;5032657;28;20561;-77
2024/04/08 08:10:44;;;;;;;11.00;4.25;;;;;;;12.05;100.00;101080.16;5014906;28;20443;-76
2024/04/08 08:13:10;;;;;;;8.80;4.23;;;;;;;11.72;100.00;100990.31;5033928;28;20212;-76
2024/04/08 08:15:35;;;;;;;11.73;4.80;;;;;;;12.37;100.00;101049.00;5030935;28;20458;-76
2024/04/08 08:18:01;;;;;;;8.47;4.20;;;;;;;12.51;100.00;101031.00;5033103;28;20184;-77
2024/04/08 08:20:27;;;;;;;10.70;4.60;;;;;;;11.75;100.00;100836.75;5029874;28;20203;-77
2024/04/08 08:22:56;;;;;;;10.07;4.50;;;;;;;11.67;100.00;100847.69;5013896;28;21067;-77
2024/04/08 08:25:23;;;;;;;12.67;4.47;;;;;;;12.30;100.00;100938.72;5023957;28;20497;-77
2024/04/08 08:27:48;;;;;;;13.13;4.67;;;;;;;11.17;100.00;100731.75;5036932;28;20509;-76
2024/04/08 08:30:14;;;;;;;12.10;4.23;;;;;;;11.37;100.00;100731.78;5030569;28;20484;-77
2024/04/08 08:32:39;;;;;;;17.10;4.03;;;;;;;11.38;100.00;100697.69;5029320;28;20199;-77
2024/04/08 08:35:05;;;;;;;10.67;3.97;;;;;;;13.10;100.00;100992.41;5031267;28;20192;-77
2024/04/08 08:37:30;;;;;;;11.83;5.10;;;;;;;12.59;100.00;100925.84;5030416;28;20191;-77
2024/04/08 08:39:55;;;;;;;9.87;3.60;;;;;;;11.46;100.00;100776.19;5014193;28;20570;-76
2024/04/08 08:42:23;;;;;;;11.20;3.60;;;;;;;13.11;100.00;101024.50;5011781;28;20210;-76
2024/04/08 08:44:55;;;;;;;10.00;3.50;;;;;;;11.28;100.00;100709.66;5032134;28;20214;-76
2024/04/08 08:47:22;;;;;;;10.87;3.43;;;;;;;11.36;100.00;100703.25;5006226;28;20444;-76
2024/04/08 08:49:51;;;;;;;21.20;5.80;;;;;;;12.59;100.00;100901.63;5014194;28;20524;-76
2024/04/08 08:52:17;;;;;;;17.87;5.17;;;;;;;13.38;100.00;101053.28;5012079;28;20451;-77
2024/04/08 08:54:43;;;;;;;8.10;3.77;;;;;;;13.16;100.00;100979.94;5014586;28;21089;-76
2024/04/08 08:57:09;;;;;;;10.13;3.67;;;;;;;12.34;100.00;100893.41;5031390;28;20623;-76
2024/04/08 08:59:35;;;;;;;12.17;4.43;;;;;;;12.70;100.00;100960.19;5027962;28;20172;-76
2024/04/08 09:02:01;;;;;;;24.90;6.30;;;;;;;13.54;100.00;101090.53;5028357;28;20942;-76
2024/04/08 09:04:26;;;;;;;11.07;3.67;;;;;;;12.21;100.00;100832.41;5029848;28;20245;-76
2024/04/08 09:06:53;;;;;;;12.43;3.50;;;;;;;12.48;100.00;100848.47;5027436;28;20650;-76
2024/04/08 09:09:19;;;;;;;10.03;3.70;;;;;;;12.51;100.00;100872.25;5014452;28;20220;-76
2024/04/08 09:11:48;;;;;;;10.63;3.77;;;;;;;11.71;100.00;100756.75;5012258;28;20576;-76
2024/04/08 09:14:14;;;;;;;8.83;3.73;;;;;;;13.75;100.00;101082.16;5011402;28;20192;-76
2024/04/08 09:16:41;;;;;;;8.90;3.40;;;;;;;12.76;100.00;100937.81;5026035;28;20444;-76
2024/04/08 09:19:07;;;;;;;12.03;3.90;;;;;;;11.34;100.00;100718.75;5029067;28;20188;-76
2024/04/08 09:21:32;;;;;;;9.07;3.23;;;;;;;12.17;100.00;100936.03;5004507;28;20486;-76
2024/04/08 09:24:06;;;;;;;16.80;3.87;;;;;;;12.59;100.00;100955.47;5021442;28;20233;-76
2024/04/08 09:26:32;;;;;;;12.27;3.20;;;;;;;12.61;100.00;100958.75;5012372;28;20192;-76
2024/04/08 09:28:57;;;;;;;8.77;3.20;;;;;;;14.33;100.00;101231.50;5028440;28;20948;-77
2024/04/08 09:31:23;;;;;;;11.40;3.33;;;;;;;14.15;100.00;101221.41;5028918;28;20207;-76
2024/04/08 09:33:49;;;;;;;10.43;3.37;;;;;;;13.00;100.00;101072.81;5005307;28;20188;-76
2024/04/08 09:36:17;;;;;;;8.60;3.17;;;;;;;12.65;100.00;100968.06;5027982;28;20442;-76
2024/04/08 09:38:43;;;;;;;12.73;3.57;;;;;;;11.94;100.00;100896.91;5015582;28;20451;-76
2024/04/08 09:41:12;;;;;;;6.93;2.90;;;;;;;12.87;100.00;100998.25;5032673;28;20470;-76
2024/04/08 09:43:39;;;;;;;7.97;2.90;;;;;;;12.27;100.00;100903.34;5026301;28;20446;-76
2024/04/08 09:46:05;;;;;;;10.00;3.13;;;;;;;13.20;100.00;101008.13;5028548;28;20442;-76
2024/04/08 09:48:32;;;;;;;9.60;3.40;;;;;;;12.91;100.00;100923.28;5012556;28;20467;-76
2024/04/08 09:51:00;;;;;;;11.17;3.40;;;;;;;14.18;100.00;101167.03;5030850;28;20481;-76
2024/04/08 09:53:32;;;;;;;8.23;3.43;;;;;;;12.90;100.00;100978.97;5026118;28;20454;-76
2024/04/08 09:56:03;;;;;;;11.63;3.43;;;;;;;13.53;100.00;101062.75;5011899;28;20442;-76
2024/04/08 09:58:33;;;;;;;8.60;3.37;;;;;;;13.15;100.00;100984.50;5032264;28;20466;-76
2024/04/08 10:01:03;;;;;;;9.27;3.70;;;;;;;13.57;100.00;101066.69;5013306;28;20919;-76
2024/04/08 10:03:40;;;;;;;9.00;3.30;;;;;;;13.46;100.00;101055.75;5010853;28;20967;-76
2024/04/08 10:06:07;;;;;;;8.70;3.30;;;;;;;13.92;100.00;101168.78;5030447;28;20442;-76
2024/04/08 10:08:34;;;;;;;8.33;3.70;;;;;;;13.29;100.00;101034.66;5025951;28;20561;-76
2024/04/08 10:11:00;;;;;;;9.33;3.13;;;;;;;12.32;100.00;100825.53;5031420;28;20457;-76
2024/04/08 10:13:25;;;;;;;9.17;2.63;;;;;;;14.58;100.00;101191.97;5021289;28;20466;-76
2024/04/08 10:15:51;;;;;;;9.20;4.30;;;;;;;12.00;100.00;100755.47;5030489;28;20448;-76
2024/04/08 10:18:19;;;;;;;8.67;3.10;;;;;;;14.02;100.00;101018.13;5010342;28;20250;-76
2024/04/08 10:20:44;;;;;;;9.93;4.00;;;;;;;12.40;100.00;100766.94;5032642;28;20477;-76
2024/04/08 10:23:10;;;;;;;8.70;2.50;;;;;;;14.03;100.00;101008.19;5012372;28;20462;-76
2024/04/08 10:25:47;;;;;;;10.20;3.50;;;;;;;15.36;100.00;101190.75;5013973;28;20608;-76
2024/04/08 10:28:19;;;;;;;9.10;2.93;;;;;;;14.17;100.00;100928.78;5026223;28;20458;-76
2024/04/08 10:30:52;;;;;;;8.57;3.03;;;;;;;12.72;100.00;100726.66;5033934;28;20522;-76
2024/04/08 10:33:18;;;;;;;10.00;2.50;;;;;;;14.63;100.00;101024.75;5033572;28;20553;-76
2024/04/08 10:35:43;;;;;;;6.73;2.17;;;;;;;14.59;100.00;101001.97;5017732;28;20939;-76
2024/04/08 10:38:09;;;;;;;10.23;2.70;;;;;;;14.60;100.00;100976.59;5032062;28;20214;-76
2024/04/08 10:40:36;;;;;;;9.13;3.07;;;;;;;12.91;100.00;100748.31;5008586;28;20649;-77
2024/04/08 10:43:02;;;;;;;7.60;2.60;;;;;;;13.62;100.00;100857.69;5028869;28;20572;-76
2024/04/08 10:45:27;;;;;;;6.83;2.33;;;;;;;14.98;100.00;101032.31;5032585;28;21018;-77
2024/04/08 10:48:00;;;;;;;8.67;2.80;;;;;;;15.38;100.00;101040.00;5028396;28;20199;-76
2024/04/08 10:50:29;;;;;;;12.53;2.30;;;;;;;14.79;100.00;100926.19;5028159;28;20190;-77
2024/04/08 10:52:55;;;;;;;7.30;1.83;;;;;;;16.09;100.00;101178.41;5026448;28;21283;-77
2024/04/08 10:55:21;;;;;;;7.70;1.90;;;;;;;14.48;100.00;100873.09;5013487;28;20439;-77
2024/04/08 10:57:47;;;;;;;6.97;2.00;;;;;;;15.44;100.00;101095.88;5016270;28;20189;-76
2024/04/08 11:00:13;;;;;;;6.67;1.80;;;;;;;13.91;100.00;100896.66;5014258;28;20496;-77
2024/04/08 11:02:39;;;;;;;5.50;1.83;;;;;;;13.53;100.00;100798.66;5017430;28;20208;-77
2024/04/08 11:05:06;;;;;;;7.47;2.10;;;;;;;14.48;100.00;100936.00;5026491;28;20719;-77
2024/04/08 11:07:37;;;;;;;6.87;1.87;;;;;;;13.59;100.00;100834.69;5029237;28;20525;-77
2024/04/08 11:10:11;;;;;;;7.47;1.83;;;;;;;14.01;100.00;100897.81;5032929;28;20815;-77